West Chicago, IL

16:55 CDT le 23 octobre 2014 (GMT -0500)
Du Page | Change Station
CLOSE
Current Station
Aéroport
Location: Chicago DuPage,
Altitude: 758 ft
Stations météo à proximité

Alt. 758 ft 41.90 °N, 88.25 °W | Updated 1 hour ago

Nuageux
Nuageux
57 ° F
Paraît 57 ° F
N
9
Vent Variable Vent de SSO

Aujourd'hui
Haut(e) -- | Bas -- ° F
--% Risque de précip.
Hier
Haut(e) -- | Bas -- ° F
Precip. -- pouce
7:14 AM 5:59 PM
Lune descendante, 0% visible
Pression 30.09 pouce
Visibilité 10.0 Miles terrestres
Nuages Ciel dégagé
Point de rosée 42 ° F
Humidité 57%
Précipitations 0.00 pouce
Profondeur de la couche neigeuse Non disponible.
UV 2 sur 12
Pollen .30 sur 12
Ozone Bon
PM2.5 Bon
Flu Activity No Activity
METAR KDPA 232052Z 20008KT 10SM CLR 14/06 A3007 RMK AO2 SLP187 T01390056 58020

More Conditions Fewer Conditions

Pression 30.09 pouce
Visibilité 10.0 Miles terrestres
Nuages Ciel dégagé
Point de rosée 42 ° F
Humidité 57%
Précipitations 0.00 pouce
Profondeur de la couche neigeuse Non disponible.
UV 2 sur 12
Pollen .30 sur 12
Ozone Bon
PM2.5 Bon
Flu Activity No Activity
METAR KDPA 232052Z 20008KT 10SM CLR 14/06 A3007 RMK AO2 SLP187 T01390056 58020

More Conditions Fewer Conditions

10-Day Weather Forecast

Almanac

Astronomie

Oct. 23, 2014 Lever Coucher
Temps réel 07:14 CDT 17:59 CDT
Crépuscule civil 06:46 CDT 18:27 CDT
Crépuscule nautique 06:13 CDT 19:00 CDT
Crépuscule astronomique 05:41 CDT 19:32 CDT
Lune 06:53 CDT 18:00 CDT
Durée de lumière visible 11h 41m
Longueur du jour
10h 44m
Tomorrow will be 2m 37s shorter.
Lune descendante, 0% of the Moon is Illuminated
Aujourd'hui
Lune descendante
Oct 23
Nouveau
Oct 30
Premier quartier
Nov 6
Pleine lune
Nov 14
Dernier quartier

Extrêmes aujourd'hui

State Highs State Lows

Community

WunderPhotos

Upload Photos

1,764,381 Photos téléchargées !

WunderBlogs® & News

Nearby

Qualité de l'air

  Qualité de l'air Indice de la qualité de l'air Polluant
Hier Bon
PM2.5
Hier Bon
OZONE
Actuel Bon
PM2.5
Actuel Bon
OZONE
jeudi Moyen
PM2.5
vendredi Moyen
PM2.5
samedi Bon
PM2.5
dimanche Bon
PM2.5
lundi Moyen
PM2.5

Épaisseur de neige

Station Depth Altitude
Pas de nouvelles chutes de neige

Activité sismique

Ville Distance Mag. Time & Date
No recent earthquake activity has been reported nearby.
Minimum magnitude displayed is 2.5.

Températures des eaux côtières

Lieu Température
Aucun rapport de station

Stations météo à proximité